Time;durP1;ratioP1;P1;durP2;ratioP2;P2;SDS_P1;SDS_P2;PMS_P1;PMS_P2;Temp;Humidity;BMP_temperature;BMP_pressure;BME280_temperature;BME280_humidity;BME280_pressure;Samples;Min_cycle;Max_cycle;Signal;HPM_P1;HPM_P2
2022/12/30 00:00:07;;;;;;;8.05;1.83;;;7.30;99.90;;;;;;4993050;28;20165;-66
2022/12/30 00:02:36;;;;;;;1.35;0.47;;;7.30;99.90;;;;;;4992886;28;20042;-67
2022/12/30 00:05:02;;;;;;;9.93;0.82;;;7.20;99.90;;;;;;4995617;28;20022;-66
2022/12/30 00:07:28;;;;;;;8.82;1.80;;;7.20;99.90;;;;;;4997031;28;20467;-66
2022/12/30 00:09:54;;;;;;;2.45;1.10;;;7.30;99.90;;;;;;4979862;28;20031;-65
2022/12/30 00:34:34;;;;;;;0.10;0.00;;;7.10;99.90;;;;;;4995230;28;20026;-66
2022/12/30 00:37:00;;;;;;;3.83;1.50;;;7.00;99.90;;;;;;4973560;28;20431;-66
2022/12/30 00:39:26;;;;;;;5.85;1.65;;;6.90;99.90;;;;;;4995192;28;20027;-66
2022/12/30 00:44:37;;;;;;;0.93;0.90;;;6.90;99.90;;;;;;4996259;28;20526;-64
2022/12/30 00:47:04;;;;;;;0.20;0.13;;;6.90;99.90;;;;;;4996024;28;20030;-66
2022/12/30 00:57:43;;;;;;;2.45;0.45;;;6.80;99.90;;;;;;5015951;28;20470;-66
2022/12/30 01:00:13;;;;;;;2.50;0.43;;;6.80;99.90;;;;;;4998136;28;20038;-65
2022/12/30 01:02:39;;;;;;;3.08;1.02;;;6.80;99.90;;;;;;4995806;28;20181;-66
2022/12/30 01:05:05;;;;;;;3.58;0.75;;;6.90;99.90;;;;;;4996031;28;20030;-65
2022/12/30 01:07:31;;;;;;;0.93;0.63;;;7.00;99.90;;;;;;4995913;28;20069;-65
2022/12/30 01:09:58;;;;;;;9.48;1.27;;;6.90;99.90;;;;;;4996031;28;20515;-65
2022/12/30 01:12:24;;;;;;;16.17;1.65;;;6.80;99.90;;;;;;4996026;28;20383;-66
2022/12/30 01:14:53;;;;;;;0.20;0.10;;;6.70;99.90;;;;;;4995899;28;20439;-65
2022/12/30 01:17:22;;;;;;;8.13;2.60;;;6.80;99.90;;;;;;4994976;28;20022;-67
2022/12/30 01:19:48;;;;;;;1.75;0.73;;;6.90;99.90;;;;;;4990846;28;20137;-67
2022/12/30 01:22:15;;;;;;;0.00;0.00;;;6.70;99.90;;;;;;4995213;28;20117;-68
2022/12/30 01:24:40;;;;;;;9.95;1.05;;;6.70;99.90;;;;;;4995764;28;20545;-66
2022/12/30 01:27:07;;;;;;;0.10;0.10;;;6.70;99.90;;;;;;4995474;28;20062;-64
2022/12/30 01:29:37;;;;;;;0.00;0.00;;;6.80;99.90;;;;;;4995422;28;20383;-66
2022/12/30 01:32:06;;;;;;;0.85;0.32;;;6.90;99.90;;;;;;4995419;28;20038;-66
2022/12/30 01:34:31;;;;;;;2.33;0.95;;;6.80;99.90;;;;;;4995508;28;20034;-67
2022/12/30 01:36:57;;;;;;;12.52;0.52;;;6.70;99.90;;;;;;4995475;28;20027;-67
2022/12/30 01:39:23;;;;;;;0.10;0.10;;;6.70;99.90;;;;;;4995321;28;20057;-65
2022/12/30 01:41:50;;;;;;;1.85;0.90;;;6.60;99.90;;;;;;4995260;28;20035;-66
2022/12/30 01:44:49;;;;;;;0.00;0.00;;;6.50;99.90;;;;;;4994981;28;20026;-65
2022/12/30 01:47:21;;;;;;;2.38;0.90;;;6.50;99.90;;;;;;4995221;28;20132;-67
2022/12/30 01:49:50;;;;;;;2.35;0.90;;;6.50;99.90;;;;;;4995081;28;20050;-65
2022/12/30 01:52:20;;;;;;;11.90;1.17;;;6.40;99.90;;;;;;4995234;28;20069;-65
2022/12/30 01:54:47;;;;;;;0.10;0.10;;;6.40;99.90;;;;;;4994344;28;20038;-66
2022/12/30 01:57:14;;;;;;;3.40;0.52;;;6.30;99.90;;;;;;4994996;28;20018;-66
2022/12/30 01:59:40;;;;;;;2.20;1.08;;;6.40;99.90;;;;;;4994833;28;20034;-65
2022/12/30 02:02:06;;;;;;;1.55;1.00;;;6.40;99.90;;;;;;4977285;28;20154;-65
2022/12/30 02:04:33;;;;;;;0.60;0.22;;;6.40;99.90;;;;;;4995065;28;20037;-66
2022/12/30 02:07:17;;;;;;;2.85;0.40;;;6.30;99.90;;;;;;4993550;28;20022;-65
2022/12/30 02:09:43;;;;;;;0.10;0.10;;;6.30;99.90;;;;;;4994808;28;20030;-65
2022/12/30 02:12:11;;;;;;;2.25;0.47;;;6.30;99.90;;;;;;4994730;28;20060;-69
2022/12/30 02:14:39;;;;;;;1.67;0.65;;;6.30;99.90;;;;;;4977562;28;20026;-67
2022/12/30 02:17:22;;;;;;;0.70;0.65;;;6.40;99.90;;;;;;4994526;28;20030;-67
2022/12/30 02:20:29;;;;;;;0.22;0.22;;;6.30;99.90;;;;;;4994225;28;20467;-65
2022/12/30 02:23:39;;;;;;;0.30;0.30;;;6.30;99.90;;;;;;4993226;28;20402;-65
2022/12/30 02:26:25;;;;;;;9.32;0.95;;;6.30;99.90;;;;;;4975103;28;20030;-65
2022/12/30 02:29:03;;;;;;;1.65;1.55;;;6.20;99.90;;;;;;4954826;28;20081;-66
2022/12/30 02:32:06;;;;;;;0.10;0.10;;;6.20;99.90;;;;;;4994360;28;20026;-68
2022/12/30 02:34:40;;;;;;;1.75;0.52;;;6.20;99.90;;;;;;4980488;28;20372;-66
2022/12/30 02:37:28;;;;;;;3.60;1.45;;;6.20;99.90;;;;;;4994325;28;20042;-64
2022/12/30 02:40:14;;;;;;;0.20;0.20;;;6.20;99.90;;;;;;4983622;28;20463;-65
2022/12/30 02:46:03;;;;;;;2.08;0.63;;;6.20;99.90;;;;;;4994099;28;20088;-66
2022/12/30 02:48:32;;;;;;;0.75;0.65;;;6.20;99.90;;;;;;4993991;28;20113;-67
2022/12/30 02:53:45;;;;;;;0.45;0.17;;;6.10;99.90;;;;;;4993998;28;20084;-66
2022/12/30 02:56:11;;;;;;;0.50;0.50;;;6.00;99.90;;;;;;4994039;28;20041;-66
2022/12/30 02:58:43;;;;;;;2.05;0.55;;;6.00;99.90;;;;;;4993550;28;20054;-66
2022/12/30 03:04:23;;;;;;;1.02;1.00;;;6.00;99.90;;;;;;4982037;28;20038;-64
2022/12/30 03:07:05;;;;;;;0.60;0.43;;;6.00;99.90;;;;;;4993905;28;20030;-65
2022/12/30 03:13:14;;;;;;;0.35;0.35;;;6.00;99.90;;;;;;4981931;28;20038;-67
2022/12/30 03:15:43;;;;;;;0.70;0.30;;;6.10;99.90;;;;;;4976865;28;20045;-67
2022/12/30 03:18:11;;;;;;;5.22;0.77;;;6.00;99.90;;;;;;4993165;28;20062;-66
2022/12/30 03:20:39;;;;;;;2.88;0.77;;;6.00;99.90;;;;;;4993282;28;20022;-68
2022/12/30 03:28:42;;;;;;;3.70;1.63;;;5.90;99.90;;;;;;4993355;28;20038;-68
2022/12/30 03:31:11;;;;;;;18.83;4.00;;;5.90;99.90;;;;;;4975775;28;20030;-67
2022/12/30 03:33:38;;;;;;;14.82;1.40;;;5.90;99.90;;;;;;4991985;28;20589;-66
2022/12/30 03:36:38;;;;;;;4.50;1.65;;;5.90;99.90;;;;;;4976033;28;20026;-65
2022/12/30 03:39:25;;;;;;;1.42;0.55;;;6.00;99.90;;;;;;4992974;28;20064;-68
2022/12/30 03:41:51;;;;;;;3.10;1.27;;;6.00;99.90;;;;;;4993018;28;20050;-66
2022/12/30 03:44:18;;;;;;;3.20;0.45;;;6.00;99.90;;;;;;4990148;28;20027;-65
2022/12/30 03:46:46;;;;;;;0.43;0.43;;;5.90;99.90;;;;;;4993079;28;20025;-66
2022/12/30 03:49:12;;;;;;;1.00;0.50;;;5.80;99.90;;;;;;4992727;28;20037;-68
2022/12/30 03:51:38;;;;;;;0.65;0.65;;;5.80;99.90;;;;;;4991994;28;20132;-64
2022/12/30 03:54:03;;;;;;;0.00;0.00;;;5.90;99.90;;;;;;4992823;28;20038;-65
2022/12/30 03:56:29;;;;;;;10.88;1.25;;;5.80;99.90;;;;;;4992896;28;20026;-65
2022/12/30 03:58:55;;;;;;;11.15;1.65;;;5.70;99.90;;;;;;4993105;28;20038;-65
2022/12/30 04:01:21;;;;;;;2.17;0.90;;;5.70;99.90;;;;;;4993113;28;20516;-65
2022/12/30 04:03:47;;;;;;;0.13;0.13;;;5.70;99.90;;;;;;4993403;28;20065;-64
2022/12/30 04:06:13;;;;;;;2.03;1.17;;;5.80;99.90;;;;;;4992796;28;20023;-66
2022/12/30 04:08:39;;;;;;;10.48;0.85;;;5.80;99.90;;;;;;4993291;28;20022;-65
2022/12/30 04:11:05;;;;;;;0.25;0.25;;;5.80;99.90;;;;;;4992730;28;20031;-66
2022/12/30 04:13:30;;;;;;;3.92;1.48;;;5.80;99.90;;;;;;4993292;28;20092;-65
2022/12/30 04:15:56;;;;;;;2.25;0.68;;;5.80;99.90;;;;;;4993184;28;20049;-65
2022/12/30 04:18:23;;;;;;;1.90;1.15;;;5.90;99.90;;;;;;4975209;28;20478;-66
2022/12/30 04:20:50;;;;;;;3.47;1.17;;;5.80;99.90;;;;;;4992734;28;20052;-67
2022/12/30 04:23:16;;;;;;;3.05;0.82;;;5.80;99.90;;;;;;4992903;28;20034;-66
2022/12/30 04:25:43;;;;;;;0.10;0.10;;;5.80;99.90;;;;;;4992652;28;20031;-68
2022/12/30 04:28:09;;;;;;;5.03;1.92;;;5.80;99.90;;;;;;4993130;28;20031;-67
2022/12/30 04:30:35;;;;;;;1.20;1.00;;;5.80;99.90;;;;;;4992341;28;20433;-67
2022/12/30 04:33:01;;;;;;;2.33;0.68;;;5.80;99.90;;;;;;4980495;28;20018;-65
2022/12/30 04:35:27;;;;;;;2.22;1.08;;;5.90;99.90;;;;;;4974280;28;20054;-66
2022/12/30 04:37:53;;;;;;;1.83;0.80;;;5.80;99.90;;;;;;4982060;28;20045;-64
2022/12/30 04:40:19;;;;;;;1.20;0.32;;;5.70;99.90;;;;;;4991548;28;20030;-65
2022/12/30 04:42:45;;;;;;;5.95;1.92;;;5.80;99.90;;;;;;4991524;28;20034;-66
2022/12/30 04:45:11;;;;;;;3.42;0.75;;;5.70;99.90;;;;;;4992043;28;20072;-66
2022/12/30 04:47:37;;;;;;;5.90;1.25;;;5.70;99.90;;;;;;4981349;28;20022;-66
2022/12/30 04:50:04;;;;;;;2.83;1.10;;;5.60;99.90;;;;;;4992077;28;20022;-66
2022/12/30 04:52:30;;;;;;;8.30;1.40;;;5.70;99.90;;;;;;4995502;28;20046;-66
2022/12/30 04:54:55;;;;;;;6.07;1.05;;;5.70;99.90;;;;;;4996038;28;20073;-66
2022/12/30 04:57:21;;;;;;;1.35;0.52;;;5.70;99.90;;;;;;4995923;28;20041;-67
2022/12/30 04:59:47;;;;;;;1.40;1.08;;;5.60;99.90;;;;;;4996171;28;20026;-67
2022/12/30 05:02:13;;;;;;;2.92;0.80;;;5.60;99.90;;;;;;4978266;28;20427;-67
2022/12/30 05:04:38;;;;;;;0.57;0.45;;;5.60;99.90;;;;;;4995833;28;20085;-65
2022/12/30 05:07:05;;;;;;;0.85;0.80;;;5.70;99.90;;;;;;4995455;28;20129;-64
2022/12/30 05:09:30;;;;;;;8.82;1.15;;;5.70;99.90;;;;;;4995774;28;20065;-65
2022/12/30 05:11:56;;;;;;;0.47;0.47;;;5.60;99.90;;;;;;4995748;28;20406;-64
2022/12/30 05:14:22;;;;;;;5.78;1.38;;;5.60;99.90;;;;;;4995681;28;20360;-68
2022/12/30 05:16:48;;;;;;;6.22;1.98;;;5.60;99.90;;;;;;4995813;28;20416;-67
2022/12/30 05:19:13;;;;;;;1.83;0.80;;;5.60;99.90;;;;;;4978419;28;20375;-68
2022/12/30 05:21:42;;;;;;;4.00;1.50;;;5.70;99.90;;;;;;4994908;28;20034;-65
2022/12/30 05:26:53;;;;;;;1.27;0.63;;;5.60;99.90;;;;;;4995599;28;20046;-67
2022/12/30 05:29:19;;;;;;;5.68;1.38;;;5.70;99.90;;;;;;4995768;28;20030;-68
2022/12/30 05:31:45;;;;;;;3.92;1.67;;;5.70;99.90;;;;;;4995393;28;20027;-69
2022/12/30 05:34:11;;;;;;;11.93;1.38;;;5.70;99.90;;;;;;5005883;28;20841;-67
2022/12/30 05:36:38;;;;;;;3.45;1.45;;;5.70;99.90;;;;;;4998552;28;20466;-69
2022/12/30 05:39:04;;;;;;;1.25;0.90;;;5.70;99.90;;;;;;4995665;28;20050;-67
2022/12/30 05:41:30;;;;;;;8.02;2.30;;;5.70;99.90;;;;;;4995143;28;20069;-70
2022/12/30 05:43:56;;;;;;;18.50;1.83;;;5.70;99.90;;;;;;4995553;28;20019;-65
2022/12/30 05:46:22;;;;;;;1.88;1.08;;;5.70;99.90;;;;;;4995284;28;20409;-67
2022/12/30 05:48:48;;;;;;;8.65;2.17;;;5.70;99.90;;;;;;4995261;28;20039;-68
2022/12/30 05:51:14;;;;;;;9.15;1.65;;;5.80;99.90;;;;;;5004571;28;20037;-67
2022/12/30 05:53:40;;;;;;;2.88;1.08;;;5.70;99.90;;;;;;4997716;28;20030;-67
2022/12/30 05:56:06;;;;;;;1.92;1.33;;;5.80;99.90;;;;;;4995063;28;20463;-68
2022/12/30 05:58:32;;;;;;;7.35;2.75;;;5.70;99.90;;;;;;4977734;28;20034;-65
2022/12/30 06:00:58;;;;;;;23.95;2.35;;;5.70;99.90;;;;;;4994791;28;20018;-65
2022/12/30 06:03:24;;;;;;;13.32;2.05;;;5.80;99.90;;;;;;4994894;28;20038;-65
2022/12/30 06:06:00;;;;;;;7.03;1.45;;;5.80;99.90;;;;;;4994602;28;20478;-66
2022/12/30 06:08:26;;;;;;;9.95;2.17;;;5.80;99.90;;;;;;4994790;28;20117;-67
2022/12/30 06:10:52;;;;;;;0.30;0.30;;;5.80;99.90;;;;;;4994769;28;20106;-67
2022/12/30 06:13:18;;;;;;;8.65;1.42;;;5.80;99.90;;;;;;4994794;28;20025;-66
2022/12/30 06:15:43;;;;;;;2.10;1.35;;;5.80;99.90;;;;;;4994682;28;20034;-66
2022/12/30 06:18:09;;;;;;;2.38;0.60;;;5.80;99.90;;;;;;4977150;28;20015;-66
2022/12/30 06:20:36;;;;;;;19.20;3.15;;;5.80;99.90;;;;;;4994209;28;20125;-68
2022/12/30 06:23:03;;;;;;;8.18;2.22;;;5.80;99.90;;;;;;4994508;28;20145;-68
2022/12/30 06:25:29;;;;;;;7.05;1.65;;;5.90;99.90;;;;;;4994685;28;20034;-68
2022/12/30 06:27:55;;;;;;;2.05;1.95;;;6.00;99.90;;;;;;4994268;28;20109;-68
2022/12/30 06:30:21;;;;;;;4.93;1.98;;;5.90;99.90;;;;;;4994649;28;20515;-66
2022/12/30 06:32:47;;;;;;;1.25;0.90;;;5.90;99.90;;;;;;4994577;28;20488;-68
2022/12/30 06:35:12;;;;;;;10.20;1.83;;;5.80;99.90;;;;;;4993248;28;20118;-66
2022/12/30 06:37:38;;;;;;;0.77;0.77;;;5.80;99.90;;;;;;4993638;28;20463;-69
2022/12/30 06:40:06;;;;;;;1.02;0.90;;;5.90;99.90;;;;;;4994043;28;20523;-67
2022/12/30 06:42:31;;;;;;;4.50;0.98;;;5.90;99.90;;;;;;4994626;28;20391;-67
2022/12/30 06:44:57;;;;;;;10.23;1.73;;;6.00;99.90;;;;;;4994275;28;20027;-67
2022/12/30 06:47:23;;;;;;;9.13;2.40;;;6.00;99.90;;;;;;4994123;28;20487;-66
2022/12/30 06:49:49;;;;;;;3.85;2.63;;;6.10;99.90;;;;;;4993933;28;20038;-69
2022/12/30 06:52:15;;;;;;;2.75;1.90;;;6.10;99.90;;;;;;4994013;28;20138;-67
2022/12/30 06:54:41;;;;;;;5.20;1.70;;;6.20;99.90;;;;;;4993831;28;20033;-67
2022/12/30 06:57:07;;;;;;;6.32;2.40;;;6.20;99.90;;;;;;4994238;28;20030;-68
2022/12/30 06:59:32;;;;;;;2.92;2.13;;;6.30;99.90;;;;;;4993821;28;20064;-68
2022/12/30 07:01:58;;;;;;;9.95;1.58;;;6.30;99.90;;;;;;4994022;28;20039;-69
2022/12/30 07:04:25;;;;;;;0.73;0.65;;;6.30;99.90;;;;;;4993655;28;20030;-67
2022/12/30 07:06:51;;;;;;;6.05;1.75;;;6.30;99.90;;;;;;4976548;28;20463;-67
2022/12/30 07:09:17;;;;;;;6.35;1.17;;;6.40;99.90;;;;;;4993559;28;20026;-67
2022/12/30 07:11:43;;;;;;;2.17;0.90;;;6.40;99.90;;;;;;4993860;28;20090;-69
2022/12/30 07:14:09;;;;;;;1.95;0.70;;;6.50;99.90;;;;;;4992812;28;20104;-68
2022/12/30 07:16:35;;;;;;;1.90;1.08;;;6.40;99.90;;;;;;4993579;28;20014;-69
2022/12/30 07:19:01;;;;;;;1.40;1.05;;;6.50;99.90;;;;;;4993304;28;20489;-64
2022/12/30 07:21:28;;;;;;;2.28;1.05;;;6.60;99.90;;;;;;5023616;23;20045;-65
2022/12/30 07:23:53;;;;;;;0.80;0.13;;;6.50;99.90;;;;;;5013334;28;20038;-65
2022/12/30 07:26:19;;;;;;;3.75;1.77;;;6.60;99.90;;;;;;5013101;28;20531;-65
2022/12/30 07:28:45;;;;;;;10.18;1.88;;;6.60;99.90;;;;;;5013220;28;20045;-68
2022/12/30 07:31:11;;;;;;;1.33;0.93;;;6.70;99.90;;;;;;5013243;28;20045;-65
2022/12/30 07:33:36;;;;;;;7.78;1.60;;;6.70;99.90;;;;;;5013004;28;20030;-66
2022/12/30 07:36:02;;;;;;;3.10;1.50;;;6.80;99.90;;;;;;5013440;28;20084;-64
2022/12/30 07:38:29;;;;;;;3.63;1.17;;;6.80;99.90;;;;;;5012991;28;20026;-64
2022/12/30 07:40:55;;;;;;;8.45;1.13;;;6.80;99.90;;;;;;5011860;28;20032;-64
2022/12/30 07:43:20;;;;;;;8.40;1.30;;;6.80;99.90;;;;;;5012922;28;20042;-68
2022/12/30 07:45:46;;;;;;;1.27;0.95;;;6.80;99.90;;;;;;5012919;28;20030;-65
2022/12/30 07:48:12;;;;;;;0.98;0.73;;;6.90;99.90;;;;;;5012630;28;20040;-64
2022/12/30 07:50:39;;;;;;;26.98;2.00;;;6.90;99.90;;;;;;5011459;28;20030;-65
2022/12/30 07:53:05;;;;;;;32.13;2.25;;;6.90;99.90;;;;;;4999367;28;20027;-64
2022/12/30 07:55:30;;;;;;;8.07;1.55;;;6.90;99.90;;;;;;4993417;28;20037;-64
2022/12/30 07:57:57;;;;;;;6.07;1.50;;;6.90;99.90;;;;;;4992971;28;20030;-63
2022/12/30 08:00:23;;;;;;;4.57;1.60;;;7.00;99.90;;;;;;4991783;28;20030;-64
2022/12/30 08:02:49;;;;;;;2.63;1.00;;;7.00;99.90;;;;;;4992121;28;20042;-65
2022/12/30 08:05:14;;;;;;;5.45;1.85;;;7.00;99.90;;;;;;4994866;28;20034;-64
2022/12/30 08:07:40;;;;;;;0.95;0.88;;;7.00;99.90;;;;;;5008332;28;20126;-64
2022/12/30 08:10:07;;;;;;;6.38;1.58;;;7.00;99.90;;;;;;5012141;28;20473;-64
2022/12/30 08:12:36;;;;;;;0.88;0.77;;;7.00;99.90;;;;;;4993487;28;20038;-65
2022/12/30 08:15:02;;;;;;;0.68;0.40;;;7.00;99.90;;;;;;4998701;28;20054;-65
2022/12/30 08:17:28;;;;;;;4.85;1.67;;;7.00;99.90;;;;;;5012320;28;20446;-65
2022/12/30 08:19:54;;;;;;;4.05;0.73;;;7.00;99.90;;;;;;5011546;28;20042;-65
2022/12/30 08:22:20;;;;;;;4.53;1.20;;;7.10;99.90;;;;;;5011976;28;20034;-65
2022/12/30 08:24:46;;;;;;;3.17;1.02;;;7.10;99.90;;;;;;5012320;28;20064;-64
2022/12/30 08:27:11;;;;;;;3.30;0.93;;;7.10;99.90;;;;;;5015093;28;20033;-68
2022/12/30 08:29:37;;;;;;;5.93;0.93;;;7.10;99.90;;;;;;5015976;28;20116;-64
2022/12/30 08:32:03;;;;;;;5.57;1.75;;;7.20;99.90;;;;;;5014589;28;20104;-64
2022/12/30 08:34:29;;;;;;;7.43;2.70;;;7.10;99.90;;;;;;5014815;28;20140;-65
2022/12/30 08:36:55;;;;;;;6.20;1.52;;;7.20;99.90;;;;;;5015035;28;20022;-64
2022/12/30 08:39:21;;;;;;;2.90;1.08;;;7.20;99.90;;;;;;5015169;28;20026;-65
2022/12/30 08:41:47;;;;;;;7.65;0.40;;;7.20;99.90;;;;;;5013671;28;20030;-64
2022/12/30 08:44:13;;;;;;;0.90;0.77;;;7.20;99.90;;;;;;5007274;28;20023;-65
2022/12/30 08:46:40;;;;;;;0.40;0.40;;;7.30;99.90;;;;;;4997408;28;20084;-65
2022/12/30 08:49:08;;;;;;;0.32;0.30;;;7.30;99.90;;;;;;4996759;28;20471;-64
2022/12/30 08:51:34;;;;;;;2.60;0.95;;;7.40;99.90;;;;;;4995931;28;20081;-64
2022/12/30 08:54:00;;;;;;;2.17;0.50;;;7.40;99.90;;;;;;5014500;28;20364;-65
2022/12/30 08:56:29;;;;;;;2.13;1.60;;;7.40;99.90;;;;;;4996886;28;20088;-65
2022/12/30 08:58:56;;;;;;;5.82;0.73;;;7.40;99.90;;;;;;4996145;28;20109;-67
2022/12/30 09:01:28;;;;;;;6.93;1.50;;;7.40;99.90;;;;;;4996624;28;20030;-65
2022/12/30 09:03:57;;;;;;;8.88;1.65;;;7.40;99.90;;;;;;4995465;28;20026;-64
2022/12/30 09:06:25;;;;;;;1.75;0.88;;;7.40;99.90;;;;;;4995149;28;20040;-65
2022/12/30 09:08:51;;;;;;;0.60;0.60;;;7.50;99.90;;;;;;5012342;28;20027;-65
2022/12/30 09:11:21;;;;;;;0.75;0.75;;;7.50;99.90;;;;;;4998570;28;20037;-66
2022/12/30 09:13:47;;;;;;;4.57;1.05;;;7.60;99.90;;;;;;4995322;28;20490;-65
2022/12/30 09:16:15;;;;;;;1.55;0.60;;;7.70;99.90;;;;;;4998250;28;20041;-65
2022/12/30 09:18:41;;;;;;;1.92;0.82;;;7.70;99.90;;;;;;5012459;28;20028;-65
2022/12/30 09:21:08;;;;;;;3.17;1.10;;;7.70;99.90;;;;;;5014472;28;20073;-65
2022/12/30 09:23:34;;;;;;;1.17;0.35;;;7.70;99.90;;;;;;5015313;28;20057;-69
2022/12/30 09:26:00;;;;;;;5.15;2.08;;;7.70;99.90;;;;;;5014932;28;20057;-65
2022/12/30 09:28:25;;;;;;;6.20;1.17;;;7.70;99.90;;;;;;5014735;28;20493;-64
2022/12/30 09:30:52;;;;;;;0.85;0.57;;;7.70;99.90;;;;;;5014823;28;20087;-64
2022/12/30 09:33:18;;;;;;;7.35;1.75;;;7.80;99.90;;;;;;5014865;28;20091;-65
2022/12/30 09:35:44;;;;;;;0.88;0.60;;;7.80;99.90;;;;;;5015095;28;20087;-64
2022/12/30 09:38:10;;;;;;;9.48;1.88;;;7.90;99.90;;;;;;5014390;28;20022;-68
2022/12/30 09:41:00;;;;;;;2.35;0.90;;;7.90;99.90;;;;;;5014813;28;20029;-68
2022/12/30 09:44:07;;;;;;;1.70;0.88;;;8.00;99.90;;;;;;5014296;28;20026;-64
2022/12/30 09:47:04;;;;;;;2.78;0.82;;;8.10;99.90;;;;;;5007296;28;20034;-65
2022/12/30 09:49:38;;;;;;;2.28;0.63;;;8.10;99.90;;;;;;5004374;28;20029;-65
2022/12/30 09:52:28;;;;;;;7.53;2.45;;;8.10;99.90;;;;;;5010015;28;20427;-65
2022/12/30 09:55:00;;;;;;;3.65;1.08;;;8.10;99.90;;;;;;5002588;28;20069;-64
2022/12/30 09:57:30;;;;;;;2.92;0.63;;;8.10;99.90;;;;;;5012750;28;20033;-64
2022/12/30 10:00:03;;;;;;;5.13;1.08;;;8.20;99.90;;;;;;5013378;28;20034;-64
2022/12/30 10:03:15;;;;;;;1.97;1.13;;;8.20;99.90;;;;;;5013957;28;20082;-64
2022/12/30 10:06:11;;;;;;;6.00;1.55;;;8.30;99.90;;;;;;4983347;28;20045;-64
2022/12/30 10:09:13;;;;;;;0.88;0.52;;;8.40;99.90;;;;;;5014188;28;20037;-65
2022/12/30 10:11:41;;;;;;;;;;;8.40;99.90;;;;;;5014140;28;20030;-65
2022/12/30 10:14:07;;;;;;;6.03;1.17;;;8.40;99.90;;;;;;5015102;28;19910;-65
2022/12/30 10:16:42;;;;;;;3.20;1.48;;;8.40;99.90;;;;;;5014259;28;20025;-65
2022/12/30 10:19:29;;;;;;;8.45;0.98;;;8.50;99.90;;;;;;5014395;28;20036;-65
2022/12/30 10:22:22;;;;;;;3.33;1.40;;;8.50;99.90;;;;;;5014309;28;20042;-64
2022/12/30 10:25:16;;;;;;;4.10;1.20;;;8.60;99.90;;;;;;5012994;28;20382;-65
2022/12/30 10:27:46;;;;;;;2.17;0.80;;;8.60;99.90;;;;;;5013773;28;20521;-65
2022/12/30 10:30:22;;;;;;;4.00;1.35;;;8.60;99.90;;;;;;5012887;28;20022;-64
2022/12/30 10:33:01;;;;;;;3.92;0.77;;;8.70;99.90;;;;;;5014109;28;20092;-63
2022/12/30 10:35:30;;;;;;;0.77;0.57;;;8.80;99.90;;;;;;5010785;28;20076;-63
2022/12/30 10:38:18;;;;;;;5.95;1.20;;;8.80;99.90;;;;;;5013537;28;20060;-64
2022/12/30 10:41:18;;;;;;;1.50;0.60;;;8.80;99.90;;;;;;5006969;28;20030;-65
2022/12/30 10:44:12;;;;;;;2.78;1.05;;;8.80;99.90;;;;;;5013417;28;20038;-65
2022/12/30 10:46:48;;;;;;;4.15;1.55;;;8.80;99.90;;;;;;5013661;28;20054;-64
2022/12/30 10:49:27;;;;;;;12.52;1.00;;;8.90;99.90;;;;;;5001109;28;20025;-65
2022/12/30 10:51:54;;;;;;;2.65;0.93;;;8.90;99.90;;;;;;5013665;28;20037;-64
2022/12/30 10:54:20;;;;;;;5.82;0.93;;;9.00;99.90;;;;;;5011234;28;20030;-64
2022/12/30 10:56:49;;;;;;;2.72;0.93;;;9.10;99.90;;;;;;5013177;28;20485;-65
2022/12/30 10:59:18;;;;;;;3.22;1.20;;;9.20;99.90;;;;;;5012955;28;20121;-65
2022/12/30 11:01:46;;;;;;;1.65;1.17;;;9.20;99.90;;;;;;5011884;28;20109;-67
2022/12/30 11:04:32;;;;;;;1.38;0.95;;;9.20;99.90;;;;;;5012709;28;20485;-65
2022/12/30 11:07:01;;;;;;;10.02;1.77;;;9.20;99.90;;;;;;5013279;28;20085;-65
2022/12/30 11:09:27;;;;;;;0.77;0.77;;;9.30;99.90;;;;;;5012277;28;20029;-65
2022/12/30 11:15:06;;;;;;;8.15;1.63;;;9.20;99.90;;;;;;5007182;28;20041;-65
2022/12/30 11:17:53;;;;;;;3.03;0.52;;;9.30;99.90;;;;;;5011785;28;20044;-65
2022/12/30 11:20:36;;;;;;;3.35;0.98;;;9.30;99.90;;;;;;5012546;28;20477;-67
2022/12/30 11:23:42;;;;;;;7.90;1.90;;;9.20;99.90;;;;;;5012925;28;20044;-68
2022/12/30 11:26:17;;;;;;;12.52;1.30;;;9.30;99.90;;;;;;4930511;28;20121;-65
2022/12/30 11:28:53;;;;;;;3.53;0.90;;;9.20;99.90;;;;;;4952161;28;20039;-65
2022/12/30 11:31:19;;;;;;;1.52;0.95;;;9.20;99.90;;;;;;4981042;28;20120;-65
2022/12/30 11:33:54;;;;;;;10.07;1.20;;;9.20;99.90;;;;;;5012371;28;20045;-65
2022/12/30 11:36:30;;;;;;;0.98;0.55;;;9.20;99.90;;;;;;5012525;28;20025;-65
2022/12/30 11:39:09;;;;;;;12.93;0.70;;;9.30;99.90;;;;;;5012185;28;20033;-65
2022/12/30 11:41:47;;;;;;;4.68;0.68;;;9.10;99.90;;;;;;5012337;28;20033;-65
2022/12/30 11:44:23;;;;;;;2.72;0.63;;;9.10;99.90;;;;;;5010955;28;20049;-65
2022/12/30 11:46:53;;;;;;;0.38;0.38;;;9.00;99.90;;;;;;5012627;28;20038;-64
2022/12/30 11:49:21;;;;;;;0.10;0.10;;;9.00;99.90;;;;;;5012368;28;20037;-64
2022/12/30 11:51:50;;;;;;;10.07;0.98;;;9.00;99.90;;;;;;5012162;28;20040;-64
2022/12/30 11:54:20;;;;;;;11.00;1.70;;;8.90;99.90;;;;;;5003699;28;20417;-68
2022/12/30 11:56:57;;;;;;;2.58;0.65;;;9.00;99.90;;;;;;4993267;28;20467;-64
2022/12/30 11:59:51;;;;;;;3.53;1.02;;;9.00;99.90;;;;;;4997342;28;20037;-66
2022/12/30 12:02:27;;;;;;;2.60;0.45;;;9.00;99.90;;;;;;5008171;28;20049;-64
2022/12/30 12:04:54;;;;;;;2.72;0.98;;;8.90;99.90;;;;;;5012937;28;20030;-64
2022/12/30 12:07:24;;;;;;;1.70;0.47;;;8.90;99.90;;;;;;5014816;28;20501;-64
2022/12/30 12:10:07;;;;;;;3.03;1.35;;;8.90;99.90;;;;;;5016222;28;20022;-65
2022/12/30 12:12:54;;;;;;;6.50;0.70;;;8.90;99.90;;;;;;5012418;28;20033;-64
2022/12/30 12:15:30;;;;;;;4.03;1.60;;;8.90;99.90;;;;;;5008820;28;20018;-66
2022/12/30 12:18:08;;;;;;;3.75;0.88;;;8.90;99.90;;;;;;5016223;28;20202;-64
2022/12/30 12:20:52;;;;;;;1.52;0.68;;;8.90;99.90;;;;;;5010225;28;20022;-64
2022/12/30 12:23:21;;;;;;;1.67;0.47;;;8.90;99.90;;;;;;5008351;28;20096;-64
2022/12/30 12:26:16;;;;;;;2.45;0.85;;;8.90;99.90;;;;;;5016208;28;20022;-67
2022/12/30 12:28:43;;;;;;;0.70;0.25;;;9.00;99.90;;;;;;5016344;28;20030;-66
2022/12/30 12:31:20;;;;;;;1.40;0.80;;;9.00;99.90;;;;;;5015939;28;20437;-64
2022/12/30 12:34:04;;;;;;;0.50;0.40;;;9.00;99.90;;;;;;5016115;28;20022;-64
2022/12/30 12:36:48;;;;;;;2.33;1.05;;;9.00;99.90;;;;;;5015873;28;20116;-65
2022/12/30 12:39:28;;;;;;;11.90;1.13;;;9.00;99.90;;;;;;5016313;28;20105;-65
2022/12/30 12:42:06;;;;;;;0.88;0.70;;;9.00;99.90;;;;;;5015109;28;20045;-65
2022/12/30 12:44:58;;;;;;;0.43;0.22;;;9.00;99.90;;;;;;5007583;28;20038;-64
2022/12/30 12:47:39;;;;;;;5.03;0.85;;;9.00;99.90;;;;;;4994820;28;20030;-65
2022/12/30 12:50:31;;;;;;;0.57;0.30;;;9.00;99.90;;;;;;4998570;28;20495;-65
2022/12/30 12:53:03;;;;;;;2.00;0.80;;;9.00;99.90;;;;;;5012398;28;20398;-64
2022/12/30 12:55:36;;;;;;;3.28;0.65;;;8.90;99.90;;;;;;4995174;28;20153;-65
2022/12/30 12:58:08;;;;;;;2.60;0.60;;;8.90;99.90;;;;;;5002566;28;20026;-64
2022/12/30 13:00:46;;;;;;;0.50;0.50;;;8.90;99.90;;;;;;5030504;28;20034;-63
2022/12/30 13:03:21;;;;;;;0.95;0.68;;;8.90;99.90;;;;;;5010856;28;20067;-65
2022/12/30 13:06:04;;;;;;;0.98;0.90;;;8.90;99.90;;;;;;5008846;28;20022;-65
2022/12/30 13:08:58;;;;;;;3.47;0.63;;;8.90;99.90;;;;;;5014601;28;20153;-65
2022/12/30 13:11:42;;;;;;;2.28;1.27;;;9.00;99.90;;;;;;5014112;28;20026;-64
2022/12/30 13:14:24;;;;;;;0.43;0.40;;;9.00;99.90;;;;;;5014799;28;20057;-66
2022/12/30 13:16:53;;;;;;;;;;;9.00;99.90;;;;;;5014245;28;20036;-64
2022/12/30 13:19:27;;;;;;;4.57;0.93;;;9.00;99.90;;;;;;5008931;28;19912;-64
2022/12/30 13:21:57;;;;;;;2.00;0.63;;;9.10;99.90;;;;;;5007344;28;20449;-64
2022/12/30 13:24:34;;;;;;;0.13;0.10;;;9.10;99.90;;;;;;5005887;28;20034;-64
2022/12/30 13:27:03;;;;;;;3.53;1.10;;;9.10;99.90;;;;;;5004150;28;20057;-64
2022/12/30 13:29:33;;;;;;;1.17;0.40;;;9.10;99.90;;;;;;5014897;28;20073;-65
2022/12/30 13:32:08;;;;;;;2.75;0.52;;;9.10;99.90;;;;;;4997406;28;20351;-65
2022/12/30 13:34:44;;;;;;;0.38;0.38;;;9.20;99.90;;;;;;4996710;28;20057;-66
2022/12/30 13:37:38;;;;;;;0.30;0.20;;;9.20;99.90;;;;;;5002272;28;20022;-65
2022/12/30 13:40:11;;;;;;;1.95;0.30;;;9.20;99.90;;;;;;4987567;28;20052;-65
2022/12/30 13:43:12;;;;;;;0.30;0.30;;;9.30;99.90;;;;;;4993993;28;20039;-66
2022/12/30 13:45:44;;;;;;;0.40;0.40;;;9.40;99.90;;;;;;5001319;28;20091;-68
2022/12/30 13:48:10;;;;;;;1.08;0.70;;;9.40;99.90;;;;;;5012986;28;20368;-67
2022/12/30 13:50:38;;;;;;;1.20;1.10;;;9.50;99.90;;;;;;5040060;22;20140;-68
2022/12/30 13:53:25;;;;;;;1.02;0.20;;;9.50;99.90;;;;;;5014377;28;20041;-69
2022/12/30 13:55:51;;;;;;;0.65;0.40;;;9.50;99.90;;;;;;5014164;28;20052;-69
2022/12/30 13:58:23;;;;;;;0.20;0.20;;;9.60;99.90;;;;;;5014595;28;20030;-70
2022/12/30 14:01:15;;;;;;;0.80;0.20;;;9.70;99.90;;;;;;5014190;28;20033;-66
2022/12/30 14:03:40;;;;;;;0.20;0.20;;;9.80;99.90;;;;;;5012837;28;20434;-67
2022/12/30 14:06:41;;;;;;;0.70;0.40;;;9.90;99.90;;;;;;4997919;28;20028;-66
2022/12/30 14:09:20;;;;;;;0.20;0.20;;;9.90;99.90;;;;;;5013903;28;20364;-68
2022/12/30 14:12:04;;;;;;;0.20;0.20;;;9.90;99.90;;;;;;5012211;28;20030;-69
2022/12/30 14:14:48;;;;;;;1.55;0.50;;;10.00;99.90;;;;;;5007875;28;20093;-69
2022/12/30 14:17:33;;;;;;;0.50;0.40;;;10.00;99.90;;;;;;5013185;28;20069;-69